Aviation Digital Data Service (ADDS)

Output produced by METARs form (0427 UTC 26 May 2018)
found at http://www.aviationweather.gov/adds/metars/
 
TAF SMJP 260400Z 2606/2706 VRB01KT 9999 FEW012 SCT030 TX29/2617Z TN23/2610Z 
     PROB40 2608/2610 00000KT 2000 BR SCT003 
     BECMG 2611/2613 10008KT 
     TEMPO 2615/2622 4000 SHRA FEW015CB BKN020 
     PROB40 
     TEMPO 2616/2618 VRB08G22KT 2000 TSRA SCT015CB SCT018